sensor_id;sensor_type;location;lat;lon;timestamp;P1;durP1;ratioP1;P2;durP2;ratioP2
55146;SDS011;41039;49.830;23.988;2023-06-19T00:02:23;10.18;;;9.15;;
55146;SDS011;41039;49.830;23.988;2023-06-19T00:04:48;11.02;;;9.93;;
55146;SDS011;41039;49.830;23.988;2023-06-19T00:07:14;14.30;;;8.87;;
55146;SDS011;41039;49.830;23.988;2023-06-19T00:09:39;10.68;;;9.57;;
55146;SDS011;41039;49.830;23.988;2023-06-19T00:12:04;11.97;;;10.77;;
55146;SDS011;41039;49.830;23.988;2023-06-19T00:14:29;12.77;;;11.48;;
55146;SDS011;41039;49.830;23.988;2023-06-19T00:16:55;12.05;;;9.82;;
55146;SDS011;41039;49.830;23.988;2023-06-19T00:19:21;11.63;;;10.40;;
55146;SDS011;41039;49.830;23.988;2023-06-19T00:21:46;12.00;;;10.73;;
55146;SDS011;41039;49.830;23.988;2023-06-19T00:24:11;12.38;;;10.55;;
55146;SDS011;41039;49.830;23.988;2023-06-19T00:26:37;11.77;;;10.30;;
55146;SDS011;41039;49.830;23.988;2023-06-19T00:29:02;11.32;;;10.20;;
55146;SDS011;41039;49.830;23.988;2023-06-19T00:31:27;13.20;;;10.35;;
55146;SDS011;41039;49.830;23.988;2023-06-19T00:33:53;11.35;;;10.15;;
55146;SDS011;41039;49.830;23.988;2023-06-19T00:36:18;11.95;;;9.95;;
55146;SDS011;41039;49.830;23.988;2023-06-19T00:38:45;11.93;;;10.55;;
55146;SDS011;41039;49.830;23.988;2023-06-19T00:41:10;12.02;;;9.90;;
55146;SDS011;41039;49.830;23.988;2023-06-19T00:43:36;11.00;;;9.63;;
55146;SDS011;41039;49.830;23.988;2023-06-19T00:46:01;11.55;;;9.95;;
55146;SDS011;41039;49.830;23.988;2023-06-19T00:48:27;11.80;;;10.05;;
55146;SDS011;41039;49.830;23.988;2023-06-19T00:50:53;10.25;;;9.35;;
55146;SDS011;41039;49.830;23.988;2023-06-19T00:53:19;11.13;;;10.02;;
55146;SDS011;41039;49.830;23.988;2023-06-19T00:55:44;11.70;;;9.88;;
55146;SDS011;41039;49.830;23.988;2023-06-19T00:58:10;12.00;;;10.23;;
55146;SDS011;41039;49.830;23.988;2023-06-19T01:00:35;11.15;;;9.48;;
55146;SDS011;41039;49.830;23.988;2023-06-19T01:03:00;10.15;;;9.10;;
55146;SDS011;41039;49.830;23.988;2023-06-19T01:05:26;11.00;;;9.88;;
55146;SDS011;41039;49.830;23.988;2023-06-19T01:10:31;11.10;;;9.95;;
55146;SDS011;41039;49.830;23.988;2023-06-19T01:13:15;10.73;;;9.63;;
55146;SDS011;41039;49.830;23.988;2023-06-19T01:15:42;10.18;;;9.18;;
55146;SDS011;41039;49.830;23.988;2023-06-19T01:18:07;11.13;;;9.77;;
55146;SDS011;41039;49.830;23.988;2023-06-19T01:20:33;10.68;;;9.23;;
55146;SDS011;41039;49.830;23.988;2023-06-19T01:23:04;11.95;;;10.57;;
55146;SDS011;41039;49.830;23.988;2023-06-19T01:25:30;11.18;;;10.10;;
55146;SDS011;41039;49.830;23.988;2023-06-19T01:27:55;12.63;;;10.40;;
55146;SDS011;41039;49.830;23.988;2023-06-19T01:30:20;11.75;;;10.55;;
55146;SDS011;41039;49.830;23.988;2023-06-19T01:35:11;11.88;;;10.68;;
55146;SDS011;41039;49.830;23.988;2023-06-19T01:37:37;11.65;;;10.38;;
55146;SDS011;41039;49.830;23.988;2023-06-19T01:40:04;10.45;;;8.95;;
55146;SDS011;41039;49.830;23.988;2023-06-19T01:42:30;9.73;;;8.77;;
55146;SDS011;41039;49.830;23.988;2023-06-19T01:44:56;10.40;;;7.95;;
55146;SDS011;41039;49.830;23.988;2023-06-19T01:47:21;11.43;;;9.43;;
55146;SDS011;41039;49.830;23.988;2023-06-19T01:49:47;9.98;;;9.00;;
55146;SDS011;41039;49.830;23.988;2023-06-19T01:52:12;9.77;;;8.77;;
55146;SDS011;41039;49.830;23.988;2023-06-19T01:54:38;7.80;;;7.00;;
55146;SDS011;41039;49.830;23.988;2023-06-19T01:57:03;10.07;;;9.07;;
55146;SDS011;41039;49.830;23.988;2023-06-19T01:59:28;9.90;;;8.75;;
55146;SDS011;41039;49.830;23.988;2023-06-19T02:01:54;9.10;;;8.05;;
55146;SDS011;41039;49.830;23.988;2023-06-19T02:04:19;9.43;;;8.15;;
55146;SDS011;41039;49.830;23.988;2023-06-19T02:06:44;8.95;;;7.78;;
55146;SDS011;41039;49.830;23.988;2023-06-19T02:09:09;9.05;;;7.88;;
55146;SDS011;41039;49.830;23.988;2023-06-19T02:11:35;10.05;;;8.10;;
55146;SDS011;41039;49.830;23.988;2023-06-19T02:14:01;8.38;;;7.25;;
55146;SDS011;41039;49.830;23.988;2023-06-19T02:16:26;8.20;;;7.15;;
55146;SDS011;41039;49.830;23.988;2023-06-19T02:18:51;8.57;;;7.55;;
55146;SDS011;41039;49.830;23.988;2023-06-19T02:21:16;8.38;;;7.03;;
55146;SDS011;41039;49.830;23.988;2023-06-19T02:23:42;8.35;;;6.68;;
55146;SDS011;41039;49.830;23.988;2023-06-19T02:26:07;8.60;;;7.10;;
55146;SDS011;41039;49.830;23.988;2023-06-19T02:28:32;9.73;;;7.00;;
55146;SDS011;41039;49.830;23.988;2023-06-19T02:30:57;8.65;;;7.38;;
55146;SDS011;41039;49.830;23.988;2023-06-19T02:33:23;7.57;;;6.55;;
55146;SDS011;41039;49.830;23.988;2023-06-19T02:35:48;9.77;;;7.18;;
55146;SDS011;41039;49.830;23.988;2023-06-19T02:38:13;11.20;;;6.93;;
55146;SDS011;41039;49.830;23.988;2023-06-19T02:40:39;9.57;;;6.70;;
55146;SDS011;41039;49.830;23.988;2023-06-19T02:43:04;7.97;;;7.17;;
55146;SDS011;41039;49.830;23.988;2023-06-19T02:45:30;12.98;;;7.32;;
55146;SDS011;41039;49.830;23.988;2023-06-19T02:47:55;8.85;;;7.35;;
55146;SDS011;41039;49.830;23.988;2023-06-19T02:50:20;9.70;;;7.22;;
55146;SDS011;41039;49.830;23.988;2023-06-19T02:52:45;11.07;;;8.60;;
55146;SDS011;41039;49.830;23.988;2023-06-19T02:55:11;10.38;;;8.52;;
55146;SDS011;41039;49.830;23.988;2023-06-19T02:57:36;9.18;;;7.90;;
55146;SDS011;41039;49.830;23.988;2023-06-19T03:00:01;10.77;;;9.68;;
55146;SDS011;41039;49.830;23.988;2023-06-19T03:02:27;9.68;;;8.50;;
55146;SDS011;41039;49.830;23.988;2023-06-19T03:04:52;9.93;;;7.85;;
55146;SDS011;41039;49.830;23.988;2023-06-19T03:07:17;8.17;;;7.23;;
55146;SDS011;41039;49.830;23.988;2023-06-19T03:09:42;8.07;;;7.22;;
55146;SDS011;41039;49.830;23.988;2023-06-19T03:12:08;8.82;;;6.95;;
55146;SDS011;41039;49.830;23.988;2023-06-19T03:14:33;9.98;;;7.40;;
55146;SDS011;41039;49.830;23.988;2023-06-19T03:16:59;9.77;;;7.03;;
55146;SDS011;41039;49.830;23.988;2023-06-19T03:19:24;9.63;;;7.80;;
55146;SDS011;41039;49.830;23.988;2023-06-19T03:21:50;14.07;;;7.90;;
55146;SDS011;41039;49.830;23.988;2023-06-19T03:24:15;10.95;;;7.90;;
55146;SDS011;41039;49.830;23.988;2023-06-19T03:26:40;9.38;;;7.40;;
55146;SDS011;41039;49.830;23.988;2023-06-19T03:29:05;9.63;;;7.40;;
55146;SDS011;41039;49.830;23.988;2023-06-19T03:31:30;10.68;;;7.20;;
55146;SDS011;41039;49.830;23.988;2023-06-19T03:33:56;10.43;;;7.47;;
55146;SDS011;41039;49.830;23.988;2023-06-19T03:36:21;10.75;;;7.30;;
55146;SDS011;41039;49.830;23.988;2023-06-19T03:38:48;9.23;;;7.45;;
55146;SDS011;41039;49.830;23.988;2023-06-19T03:41:13;11.85;;;10.23;;
55146;SDS011;41039;49.830;23.988;2023-06-19T03:43:38;10.53;;;7.47;;
55146;SDS011;41039;49.830;23.988;2023-06-19T03:46:04;9.00;;;7.78;;
55146;SDS011;41039;49.830;23.988;2023-06-19T03:48:29;9.23;;;7.80;;
55146;SDS011;41039;49.830;23.988;2023-06-19T03:50:54;9.35;;;7.95;;
55146;SDS011;41039;49.830;23.988;2023-06-19T03:53:20;11.00;;;8.30;;
55146;SDS011;41039;49.830;23.988;2023-06-19T03:55:45;10.73;;;9.07;;
55146;SDS011;41039;49.830;23.988;2023-06-19T03:58:10;11.18;;;8.45;;
55146;SDS011;41039;49.830;23.988;2023-06-19T04:00:36;11.20;;;8.73;;
55146;SDS011;41039;49.830;23.988;2023-06-19T04:03:01;10.13;;;8.50;;
55146;SDS011;41039;49.830;23.988;2023-06-19T04:05:26;15.38;;;9.77;;
55146;SDS011;41039;49.830;23.988;2023-06-19T04:07:51;11.50;;;9.35;;
55146;SDS011;41039;49.830;23.988;2023-06-19T04:10:17;13.73;;;10.70;;
55146;SDS011;41039;49.830;23.988;2023-06-19T04:12:42;14.05;;;10.13;;
55146;SDS011;41039;49.830;23.988;2023-06-19T04:15:07;14.45;;;9.93;;
55146;SDS011;41039;49.830;23.988;2023-06-19T04:17:33;13.55;;;10.50;;
55146;SDS011;41039;49.830;23.988;2023-06-19T04:19:58;11.88;;;8.57;;
55146;SDS011;41039;49.830;23.988;2023-06-19T04:22:23;11.40;;;7.80;;
55146;SDS011;41039;49.830;23.988;2023-06-19T04:24:48;11.53;;;8.30;;
55146;SDS011;41039;49.830;23.988;2023-06-19T04:27:14;7.45;;;6.47;;
55146;SDS011;41039;49.830;23.988;2023-06-19T04:29:39;7.27;;;5.93;;
55146;SDS011;41039;49.830;23.988;2023-06-19T04:32:04;8.43;;;7.32;;
55146;SDS011;41039;49.830;23.988;2023-06-19T04:34:36;6.47;;;5.78;;
55146;SDS011;41039;49.830;23.988;2023-06-19T04:37:02;8.05;;;5.72;;
55146;SDS011;41039;49.830;23.988;2023-06-19T04:39:27;6.68;;;5.65;;
55146;SDS011;41039;49.830;23.988;2023-06-19T04:41:52;9.47;;;6.27;;
55146;SDS011;41039;49.830;23.988;2023-06-19T04:44:17;7.10;;;5.80;;
55146;SDS011;41039;49.830;23.988;2023-06-19T04:46:43;6.50;;;4.97;;
55146;SDS011;41039;49.830;23.988;2023-06-19T04:49:11;7.72;;;6.63;;
55146;SDS011;41039;49.830;23.988;2023-06-19T04:51:37;6.90;;;6.18;;
55146;SDS011;41039;49.830;23.988;2023-06-19T04:54:03;9.32;;;8.13;;
55146;SDS011;41039;49.830;23.988;2023-06-19T04:56:28;12.65;;;9.90;;
55146;SDS011;41039;49.830;23.988;2023-06-19T04:58:54;15.77;;;11.68;;
55146;SDS011;41039;49.830;23.988;2023-06-19T05:01:22;15.10;;;12.82;;
55146;SDS011;41039;49.830;23.988;2023-06-19T05:03:52;13.20;;;11.30;;
55146;SDS011;41039;49.830;23.988;2023-06-19T05:06:18;10.05;;;8.40;;
55146;SDS011;41039;49.830;23.988;2023-06-19T05:08:43;14.98;;;11.23;;
55146;SDS011;41039;49.830;23.988;2023-06-19T05:11:08;10.27;;;7.65;;
55146;SDS011;41039;49.830;23.988;2023-06-19T05:13:33;7.63;;;6.37;;
55146;SDS011;41039;49.830;23.988;2023-06-19T05:15:59;8.13;;;5.23;;
55146;SDS011;41039;49.830;23.988;2023-06-19T05:18:24;8.87;;;6.23;;
55146;SDS011;41039;49.830;23.988;2023-06-19T05:20:49;7.57;;;5.47;;
55146;SDS011;41039;49.830;23.988;2023-06-19T05:23:14;8.82;;;5.80;;
55146;SDS011;41039;49.830;23.988;2023-06-19T05:25:40;9.50;;;5.60;;
55146;SDS011;41039;49.830;23.988;2023-06-19T05:28:05;10.60;;;5.20;;
55146;SDS011;41039;49.830;23.988;2023-06-19T05:30:30;5.43;;;4.50;;
55146;SDS011;41039;49.830;23.988;2023-06-19T05:32:55;6.80;;;5.03;;
55146;SDS011;41039;49.830;23.988;2023-06-19T05:35:21;6.95;;;5.22;;
55146;SDS011;41039;49.830;23.988;2023-06-19T05:37:46;6.35;;;4.80;;
55146;SDS011;41039;49.830;23.988;2023-06-19T05:40:12;5.88;;;4.63;;
55146;SDS011;41039;49.830;23.988;2023-06-19T05:42:37;10.95;;;8.45;;
55146;SDS011;41039;49.830;23.988;2023-06-19T05:45:03;8.98;;;6.55;;
55146;SDS011;41039;49.830;23.988;2023-06-19T05:47:28;5.45;;;4.53;;
55146;SDS011;41039;49.830;23.988;2023-06-19T05:49:55;6.20;;;5.57;;
55146;SDS011;41039;49.830;23.988;2023-06-19T05:52:20;6.43;;;5.53;;
55146;SDS011;41039;49.830;23.988;2023-06-19T05:54:46;6.70;;;5.32;;
55146;SDS011;41039;49.830;23.988;2023-06-19T05:57:11;7.15;;;5.10;;
55146;SDS011;41039;49.830;23.988;2023-06-19T05:59:36;6.10;;;5.00;;
55146;SDS011;41039;49.830;23.988;2023-06-19T06:02:02;6.63;;;4.60;;
55146;SDS011;41039;49.830;23.988;2023-06-19T06:04:28;7.03;;;5.45;;
55146;SDS011;41039;49.830;23.988;2023-06-19T06:06:53;7.82;;;5.05;;
55146;SDS011;41039;49.830;23.988;2023-06-19T06:09:18;6.22;;;5.40;;
55146;SDS011;41039;49.830;23.988;2023-06-19T06:11:44;6.43;;;5.50;;
55146;SDS011;41039;49.830;23.988;2023-06-19T06:14:10;7.13;;;4.85;;
55146;SDS011;41039;49.830;23.988;2023-06-19T06:16:35;6.70;;;5.23;;
55146;SDS011;41039;49.830;23.988;2023-06-19T06:19:00;7.25;;;5.63;;
55146;SDS011;41039;49.830;23.988;2023-06-19T06:21:25;7.10;;;6.40;;
55146;SDS011;41039;49.830;23.988;2023-06-19T06:23:50;9.53;;;6.07;;
55146;SDS011;41039;49.830;23.988;2023-06-19T06:26:16;7.67;;;5.67;;
55146;SDS011;41039;49.830;23.988;2023-06-19T06:28:41;5.95;;;5.25;;
55146;SDS011;41039;49.830;23.988;2023-06-19T06:31:06;7.40;;;5.93;;
55146;SDS011;41039;49.830;23.988;2023-06-19T06:33:32;8.10;;;5.85;;
55146;SDS011;41039;49.830;23.988;2023-06-19T06:35:57;9.75;;;5.15;;
55146;SDS011;41039;49.830;23.988;2023-06-19T06:38:23;7.70;;;5.70;;
55146;SDS011;41039;49.830;23.988;2023-06-19T06:40:48;7.40;;;6.45;;
55146;SDS011;41039;49.830;23.988;2023-06-19T06:43:13;7.60;;;4.60;;
55146;SDS011;41039;49.830;23.988;2023-06-19T06:45:39;8.27;;;5.90;;
55146;SDS011;41039;49.830;23.988;2023-06-19T06:48:04;6.65;;;5.32;;
55146;SDS011;41039;49.830;23.988;2023-06-19T06:50:31;5.47;;;4.97;;
55146;SDS011;41039;49.830;23.988;2023-06-19T06:52:57;5.70;;;4.47;;
55146;SDS011;41039;49.830;23.988;2023-06-19T06:55:22;7.85;;;5.10;;
55146;SDS011;41039;49.830;23.988;2023-06-19T06:57:47;5.90;;;5.20;;
55146;SDS011;41039;49.830;23.988;2023-06-19T07:00:13;5.20;;;4.70;;
55146;SDS011;41039;49.830;23.988;2023-06-19T07:02:38;7.30;;;6.07;;
55146;SDS011;41039;49.830;23.988;2023-06-19T07:05:06;6.13;;;5.10;;
55146;SDS011;41039;49.830;23.988;2023-06-19T07:07:31;7.25;;;4.80;;
55146;SDS011;41039;49.830;23.988;2023-06-19T07:09:56;9.38;;;5.15;;
55146;SDS011;41039;49.830;23.988;2023-06-19T07:12:22;7.57;;;5.38;;
55146;SDS011;41039;49.830;23.988;2023-06-19T07:14:47;8.70;;;4.82;;
55146;SDS011;41039;49.830;23.988;2023-06-19T07:17:12;7.13;;;5.00;;
55146;SDS011;41039;49.830;23.988;2023-06-19T07:19:38;7.15;;;5.10;;
55146;SDS011;41039;49.830;23.988;2023-06-19T07:22:03;6.68;;;4.82;;
55146;SDS011;41039;49.830;23.988;2023-06-19T07:24:28;6.68;;;5.50;;
55146;SDS011;41039;49.830;23.988;2023-06-19T07:26:54;7.38;;;5.22;;
55146;SDS011;41039;49.830;23.988;2023-06-19T07:29:19;7.63;;;5.22;;
55146;SDS011;41039;49.830;23.988;2023-06-19T07:31:46;6.63;;;5.68;;
55146;SDS011;41039;49.830;23.988;2023-06-19T07:34:11;6.22;;;4.60;;
55146;SDS011;41039;49.830;23.988;2023-06-19T07:36:37;7.32;;;5.07;;
55146;SDS011;41039;49.830;23.988;2023-06-19T07:39:02;5.07;;;4.17;;
55146;SDS011;41039;49.830;23.988;2023-06-19T07:41:27;8.15;;;4.82;;
55146;SDS011;41039;49.830;23.988;2023-06-19T07:43:53;5.27;;;4.10;;
55146;SDS011;41039;49.830;23.988;2023-06-19T07:46:18;5.30;;;3.70;;
55146;SDS011;41039;49.830;23.988;2023-06-19T07:48:43;7.47;;;4.38;;
55146;SDS011;41039;49.830;23.988;2023-06-19T07:51:08;6.93;;;3.42;;
55146;SDS011;41039;49.830;23.988;2023-06-19T07:53:34;6.78;;;3.90;;
55146;SDS011;41039;49.830;23.988;2023-06-19T07:55:59;5.53;;;4.10;;
55146;SDS011;41039;49.830;23.988;2023-06-19T07:58:24;5.22;;;4.07;;
55146;SDS011;41039;49.830;23.988;2023-06-19T08:00:49;7.40;;;4.70;;
55146;SDS011;41039;49.830;23.988;2023-06-19T08:03:15;4.87;;;3.90;;
55146;SDS011;41039;49.830;23.988;2023-06-19T08:05:40;6.10;;;4.22;;
55146;SDS011;41039;49.830;23.988;2023-06-19T08:08:05;6.70;;;3.97;;
55146;SDS011;41039;49.830;23.988;2023-06-19T08:10:30;7.20;;;4.25;;
55146;SDS011;41039;49.830;23.988;2023-06-19T08:12:55;4.73;;;3.60;;
55146;SDS011;41039;49.830;23.988;2023-06-19T08:15:21;5.13;;;3.65;;
55146;SDS011;41039;49.830;23.988;2023-06-19T08:17:46;6.33;;;4.73;;
55146;SDS011;41039;49.830;23.988;2023-06-19T08:20:11;5.80;;;3.50;;
55146;SDS011;41039;49.830;23.988;2023-06-19T08:22:37;3.83;;;3.42;;
55146;SDS011;41039;49.830;23.988;2023-06-19T08:25:02;4.73;;;3.60;;
55146;SDS011;41039;49.830;23.988;2023-06-19T08:27:27;6.47;;;4.53;;
55146;SDS011;41039;49.830;23.988;2023-06-19T08:29:53;5.60;;;3.75;;
55146;SDS011;41039;49.830;23.988;2023-06-19T08:32:18;4.07;;;3.33;;
55146;SDS011;41039;49.830;23.988;2023-06-19T08:34:44;4.40;;;3.20;;
55146;SDS011;41039;49.830;23.988;2023-06-19T08:37:09;3.57;;;3.00;;
55146;SDS011;41039;49.830;23.988;2023-06-19T08:39:34;6.13;;;4.43;;
55146;SDS011;41039;49.830;23.988;2023-06-19T08:42:03;7.05;;;3.53;;
55146;SDS011;41039;49.830;23.988;2023-06-19T08:44:28;6.72;;;3.95;;
55146;SDS011;41039;49.830;23.988;2023-06-19T08:46:53;4.22;;;3.78;;
55146;SDS011;41039;49.830;23.988;2023-06-19T08:49:19;6.88;;;5.55;;
55146;SDS011;41039;49.830;23.988;2023-06-19T08:51:44;5.40;;;4.25;;
55146;SDS011;41039;49.830;23.988;2023-06-19T08:54:09;5.43;;;3.73;;
55146;SDS011;41039;49.830;23.988;2023-06-19T08:56:35;5.15;;;3.70;;
55146;SDS011;41039;49.830;23.988;2023-06-19T08:59:08;4.00;;;3.50;;
55146;SDS011;41039;49.830;23.988;2023-06-19T09:01:34;5.85;;;4.05;;
55146;SDS011;41039;49.830;23.988;2023-06-19T09:03:59;7.15;;;4.43;;
55146;SDS011;41039;49.830;23.988;2023-06-19T09:06:25;5.80;;;3.83;;
55146;SDS011;41039;49.830;23.988;2023-06-19T09:08:59;6.63;;;4.90;;
55146;SDS011;41039;49.830;23.988;2023-06-19T09:11:24;5.97;;;3.53;;
55146;SDS011;41039;49.830;23.988;2023-06-19T09:13:56;4.97;;;3.15;;
55146;SDS011;41039;49.830;23.988;2023-06-19T09:16:21;4.10;;;3.00;;
55146;SDS011;41039;49.830;23.988;2023-06-19T09:18:48;3.28;;;2.80;;
55146;SDS011;41039;49.830;23.988;2023-06-19T09:21:20;5.13;;;3.40;;
55146;SDS011;41039;49.830;23.988;2023-06-19T09:23:48;5.05;;;3.80;;
55146;SDS011;41039;49.830;23.988;2023-06-19T09:26:14;4.97;;;3.90;;
55146;SDS011;41039;49.830;23.988;2023-06-19T09:28:41;5.47;;;3.47;;
55146;SDS011;41039;49.830;23.988;2023-06-19T09:31:09;4.07;;;3.53;;
55146;SDS011;41039;49.830;23.988;2023-06-19T09:33:35;7.32;;;3.92;;
55146;SDS011;41039;49.830;23.988;2023-06-19T09:36:02;5.82;;;3.50;;
55146;SDS011;41039;49.830;23.988;2023-06-19T09:38:28;3.50;;;2.90;;
55146;SDS011;41039;49.830;23.988;2023-06-19T09:40:55;3.38;;;3.05;;
55146;SDS011;41039;49.830;23.988;2023-06-19T09:43:39;4.95;;;3.72;;
55146;SDS011;41039;49.830;23.988;2023-06-19T09:46:06;5.35;;;3.40;;
55146;SDS011;41039;49.830;23.988;2023-06-19T09:48:32;4.75;;;3.20;;
55146;SDS011;41039;49.830;23.988;2023-06-19T09:51:00;5.00;;;3.33;;
55146;SDS011;41039;49.830;23.988;2023-06-19T09:53:26;4.10;;;3.17;;
55146;SDS011;41039;49.830;23.988;2023-06-19T09:55:51;4.35;;;3.08;;
55146;SDS011;41039;49.830;23.988;2023-06-19T09:58:19;4.70;;;3.20;;
55146;SDS011;41039;49.830;23.988;2023-06-19T10:00:45;3.60;;;2.97;;
55146;SDS011;41039;49.830;23.988;2023-06-19T10:03:12;4.53;;;3.42;;
55146;SDS011;41039;49.830;23.988;2023-06-19T10:05:37;3.45;;;3.15;;
55146;SDS011;41039;49.830;23.988;2023-06-19T10:08:03;5.18;;;2.85;;
55146;SDS011;41039;49.830;23.988;2023-06-19T10:10:29;6.03;;;3.53;;
55146;SDS011;41039;49.830;23.988;2023-06-19T10:12:55;3.83;;;3.13;;
55146;SDS011;41039;49.830;23.988;2023-06-19T10:15:25;5.75;;;3.70;;
55146;SDS011;41039;49.830;23.988;2023-06-19T10:17:51;4.07;;;3.22;;
55146;SDS011;41039;49.830;23.988;2023-06-19T10:25:22;5.03;;;3.40;;
55146;SDS011;41039;49.830;23.988;2023-06-19T10:27:47;5.20;;;3.25;;
55146;SDS011;41039;49.830;23.988;2023-06-19T10:30:16;3.65;;;3.03;;
55146;SDS011;41039;49.830;23.988;2023-06-19T10:32:42;5.43;;;3.20;;
55146;SDS011;41039;49.830;23.988;2023-06-19T10:35:10;3.50;;;2.90;;
55146;SDS011;41039;49.830;23.988;2023-06-19T10:37:36;5.88;;;3.70;;
55146;SDS011;41039;49.830;23.988;2023-06-19T10:40:01;6.33;;;4.10;;
55146;SDS011;41039;49.830;23.988;2023-06-19T10:42:26;6.30;;;3.87;;
55146;SDS011;41039;49.830;23.988;2023-06-19T10:44:58;5.97;;;3.80;;
55146;SDS011;41039;49.830;23.988;2023-06-19T10:47:23;3.70;;;3.27;;
55146;SDS011;41039;49.830;23.988;2023-06-19T10:49:49;3.67;;;3.08;;
55146;SDS011;41039;49.830;23.988;2023-06-19T10:52:14;6.57;;;3.30;;
55146;SDS011;41039;49.830;23.988;2023-06-19T10:54:40;5.25;;;3.95;;
55146;SDS011;41039;49.830;23.988;2023-06-19T10:57:06;5.30;;;3.30;;
55146;SDS011;41039;49.830;23.988;2023-06-19T10:59:31;5.63;;;3.70;;
55146;SDS011;41039;49.830;23.988;2023-06-19T11:01:58;4.90;;;3.65;;
55146;SDS011;41039;49.830;23.988;2023-06-19T11:04:23;4.78;;;3.50;;
55146;SDS011;41039;49.830;23.988;2023-06-19T11:06:50;5.00;;;3.60;;
55146;SDS011;41039;49.830;23.988;2023-06-19T11:09:15;9.15;;;3.47;;
55146;SDS011;41039;49.830;23.988;2023-06-19T11:11:47;6.07;;;3.58;;
55146;SDS011;41039;49.830;23.988;2023-06-19T11:14:13;5.57;;;3.70;;
55146;SDS011;41039;49.830;23.988;2023-06-19T11:16:40;4.90;;;3.65;;
55146;SDS011;41039;49.830;23.988;2023-06-19T11:19:06;5.03;;;3.95;;
55146;SDS011;41039;49.830;23.988;2023-06-19T11:21:33;13.90;;;12.48;;
55146;SDS011;41039;49.830;23.988;2023-06-19T11:24:01;5.10;;;4.18;;
55146;SDS011;41039;49.830;23.988;2023-06-19T11:26:27;7.00;;;3.80;;
55146;SDS011;41039;49.830;23.988;2023-06-19T11:28:52;4.85;;;3.70;;
55146;SDS011;41039;49.830;23.988;2023-06-19T11:31:24;8.38;;;6.70;;
55146;SDS011;41039;49.830;23.988;2023-06-19T11:33:55;18.08;;;14.00;;
55146;SDS011;41039;49.830;23.988;2023-06-19T11:36:20;5.68;;;4.05;;
55146;SDS011;41039;49.830;23.988;2023-06-19T11:38:46;6.83;;;3.73;;
55146;SDS011;41039;49.830;23.988;2023-06-19T11:41:11;5.95;;;5.38;;
55146;SDS011;41039;49.830;23.988;2023-06-19T11:43:37;6.05;;;4.63;;
55146;SDS011;41039;49.830;23.988;2023-06-19T11:46:07;8.25;;;7.43;;
55146;SDS011;41039;49.830;23.988;2023-06-19T11:48:38;4.72;;;3.95;;
55146;SDS011;41039;49.830;23.988;2023-06-19T11:51:03;7.25;;;4.03;;
55146;SDS011;41039;49.830;23.988;2023-06-19T11:53:29;4.47;;;3.45;;
55146;SDS011;41039;49.830;23.988;2023-06-19T11:55:54;4.32;;;3.78;;
55146;SDS011;41039;49.830;23.988;2023-06-19T11:58:20;4.43;;;3.85;;
55146;SDS011;41039;49.830;23.988;2023-06-19T12:00:45;3.88;;;3.40;;
55146;SDS011;41039;49.830;23.988;2023-06-19T12:03:11;6.27;;;3.83;;
55146;SDS011;41039;49.830;23.988;2023-06-19T12:05:36;4.85;;;3.95;;
55146;SDS011;41039;49.830;23.988;2023-06-19T12:08:02;6.03;;;3.92;;
55146;SDS011;41039;49.830;23.988;2023-06-19T12:10:27;4.93;;;4.35;;
55146;SDS011;41039;49.830;23.988;2023-06-19T12:12:53;5.95;;;4.55;;
55146;SDS011;41039;49.830;23.988;2023-06-19T12:15:18;6.40;;;4.20;;
55146;SDS011;41039;49.830;23.988;2023-06-19T12:17:43;8.20;;;4.32;;
55146;SDS011;41039;49.830;23.988;2023-06-19T12:20:10;5.30;;;4.45;;
55146;SDS011;41039;49.830;23.988;2023-06-19T12:22:35;4.90;;;4.40;;
55146;SDS011;41039;49.830;23.988;2023-06-19T12:25:01;4.90;;;4.10;;
55146;SDS011;41039;49.830;23.988;2023-06-19T12:27:26;5.65;;;4.00;;
55146;SDS011;41039;49.830;23.988;2023-06-19T12:29:51;5.10;;;3.97;;
55146;SDS011;41039;49.830;23.988;2023-06-19T12:32:17;4.57;;;3.85;;
55146;SDS011;41039;49.830;23.988;2023-06-19T12:34:42;6.90;;;4.05;;
55146;SDS011;41039;49.830;23.988;2023-06-19T12:37:11;5.30;;;4.10;;
55146;SDS011;41039;49.830;23.988;2023-06-19T12:39:38;4.90;;;3.92;;
55146;SDS011;41039;49.830;23.988;2023-06-19T12:42:03;8.95;;;4.80;;
55146;SDS011;41039;49.830;23.988;2023-06-19T12:44:28;5.00;;;3.80;;
55146;SDS011;41039;49.830;23.988;2023-06-19T12:46:54;5.07;;;4.27;;
55146;SDS011;41039;49.830;23.988;2023-06-19T12:49:19;6.22;;;4.43;;
55146;SDS011;41039;49.830;23.988;2023-06-19T12:51:44;6.60;;;5.63;;
55146;SDS011;41039;49.830;23.988;2023-06-19T12:54:10;6.65;;;5.13;;
55146;SDS011;41039;49.830;23.988;2023-06-19T12:56:35;6.93;;;5.30;;
55146;SDS011;41039;49.830;23.988;2023-06-19T12:59:00;6.93;;;5.05;;
55146;SDS011;41039;49.830;23.988;2023-06-19T13:01:26;6.50;;;5.30;;
55146;SDS011;41039;49.830;23.988;2023-06-19T13:03:51;6.95;;;5.75;;
55146;SDS011;41039;49.830;23.988;2023-06-19T13:06:16;6.00;;;5.10;;
55146;SDS011;41039;49.830;23.988;2023-06-19T13:08:42;5.82;;;4.60;;
55146;SDS011;41039;49.830;23.988;2023-06-19T13:11:07;5.85;;;4.88;;
55146;SDS011;41039;49.830;23.988;2023-06-19T13:13:33;5.00;;;4.22;;
55146;SDS011;41039;49.830;23.988;2023-06-19T13:15:58;5.93;;;5.32;;
55146;SDS011;41039;49.830;23.988;2023-06-19T13:18:23;8.23;;;5.80;;
55146;SDS011;41039;49.830;23.988;2023-06-19T13:20:48;15.30;;;6.27;;
55146;SDS011;41039;49.830;23.988;2023-06-19T13:23:14;8.57;;;4.93;;
55146;SDS011;41039;49.830;23.988;2023-06-19T13:25:40;9.30;;;5.40;;
55146;SDS011;41039;49.830;23.988;2023-06-19T13:28:05;5.15;;;4.03;;
55146;SDS011;41039;49.830;23.988;2023-06-19T13:30:30;7.07;;;4.57;;
55146;SDS011;41039;49.830;23.988;2023-06-19T13:32:55;10.73;;;6.13;;
55146;SDS011;41039;49.830;23.988;2023-06-19T13:35:20;9.10;;;4.97;;
55146;SDS011;41039;49.830;23.988;2023-06-19T13:37:46;6.93;;;4.85;;
55146;SDS011;41039;49.830;23.988;2023-06-19T13:40:11;6.35;;;4.85;;
55146;SDS011;41039;49.830;23.988;2023-06-19T13:42:37;5.80;;;4.95;;
55146;SDS011;41039;49.830;23.988;2023-06-19T13:45:03;8.05;;;6.30;;
55146;SDS011;41039;49.830;23.988;2023-06-19T13:47:29;7.40;;;6.47;;
55146;SDS011;41039;49.830;23.988;2023-06-19T13:49:54;8.80;;;6.75;;
55146;SDS011;41039;49.830;23.988;2023-06-19T13:52:19;8.23;;;6.90;;
55146;SDS011;41039;49.830;23.988;2023-06-19T13:54:45;7.00;;;6.30;;
55146;SDS011;41039;49.830;23.988;2023-06-19T13:57:10;7.32;;;5.97;;
55146;SDS011;41039;49.830;23.988;2023-06-19T13:59:35;9.93;;;8.93;;
55146;SDS011;41039;49.830;23.988;2023-06-19T14:02:01;9.95;;;8.95;;
55146;SDS011;41039;49.830;23.988;2023-06-19T14:04:26;15.45;;;12.93;;
55146;SDS011;41039;49.830;23.988;2023-06-19T14:06:51;15.87;;;14.33;;
55146;SDS011;41039;49.830;23.988;2023-06-19T14:09:17;11.15;;;10.00;;
55146;SDS011;41039;49.830;23.988;2023-06-19T14:11:42;9.43;;;8.27;;
55146;SDS011;41039;49.830;23.988;2023-06-19T14:14:09;9.95;;;8.20;;
55146;SDS011;41039;49.830;23.988;2023-06-19T14:16:34;10.98;;;8.68;;
55146;SDS011;41039;49.830;23.988;2023-06-19T14:18:59;9.77;;;8.77;;
55146;SDS011;41039;49.830;23.988;2023-06-19T14:21:24;9.05;;;7.43;;
55146;SDS011;41039;49.830;23.988;2023-06-19T14:23:50;8.45;;;7.55;;
55146;SDS011;41039;49.830;23.988;2023-06-19T14:26:15;10.25;;;8.40;;
55146;SDS011;41039;49.830;23.988;2023-06-19T14:28:41;11.23;;;10.13;;
55146;SDS011;41039;49.830;23.988;2023-06-19T14:31:06;9.20;;;8.17;;
55146;SDS011;41039;49.830;23.988;2023-06-19T14:33:31;13.65;;;9.73;;